| time (UTC) | temp F | wind direction | speed MPH | gust MPH | rain 1hr in | rain 24hr in | rain mn in | humidity % | barometer mb |
| 20260504184543 | 76 | 286 | 2.0 | 13.0 | 0.00 | 0.00 | 0.00 | 38 | 1014.6 |
| 20260504183045 | 77 | 336 | 2.0 | 10.0 | 0.00 | 0.00 | 0.00 | 36 | 1014.6 |
| 20260504181549 | 76 | 37 | 2.0 | 8.0 | 0.00 | 0.00 | 0.00 | 39 | 1014.8 |
| 20260504180045 | 76 | 179 | 4.0 | 10.0 | 0.00 | 0.00 | 0.00 | 36 | 1015.0 |
| 20260504174546 | 76 | 262 | 2.0 | 7.0 | 0.00 | 0.00 | 0.00 | 37 | 1015.0 |
| 20260504173042 | 75 | 237 | 3.0 | 7.0 | 0.00 | 0.00 | 0.00 | 36 | 1015.1 |
| 20260504171551 | 76 | 266 | 1.0 | 5.0 | 0.00 | 0.00 | 0.00 | 40 | 1015.1 |
| 20260504081551 | 37 | 0 | 0.0 | 1.0 | 0.00 | 0.00 | 0.00 | 95 | 1016.2 |
| 20260504044542 | 41 | 0 | 0.0 | 0.0 | 0.00 | 0.00 | 0.00 | 90 | 1016.5 |
| 20260504043044 | 41 | 330 | 0.0 | 1.0 | 0.00 | 0.00 | 0.00 | 90 | 1016.5 |
| 20260504041541 | 42 | 0 | 0.0 | 1.0 | 0.00 | 0.00 | 0.00 | 89 | 1016.3 |
| 20260504040048 | 42 | 0 | 0.0 | 1.0 | 0.00 | 0.00 | 0.00 | 89 | 1016.2 |
| 20260504034545 | 42 | 0 | 0.0 | 1.0 | 0.00 | 0.00 | 0.00 | 88 | 1016.3 |
| 20260504033043 | 42 | 0 | 0.0 | 0.0 | 0.00 | 0.00 | 0.00 | 89 | 1016.3 |
| 20260504031543 | 42 | 0 | 0.0 | 0.0 | 0.00 | 0.00 | 0.00 | 89 | 1016.5 |
| 20260504030042 | 43 | 0 | 0.0 | 0.0 | 0.00 | 0.00 | 0.00 | 88 | 1016.6 |
| 20260504024549 | 43 | 0 | 0.0 | 0.0 | 0.00 | 0.00 | 0.00 | 87 | 1016.5 |
| 20260504023045 | 44 | 0 | 0.0 | 0.0 | 0.00 | 0.00 | 0.00 | 85 | 1016.6 |
| 20260504021544 | 44 | 0 | 0.0 | 0.0 | 0.00 | 0.00 | 0.00 | 84 | 1016.3 |
| 20260504020121 | 45 | 0 | 0.0 | 0.0 | 0.00 | 0.00 | 0.00 | 82 | 1016.3 |
| 20260504014558 | 46 | 0 | 0.0 | 0.0 | 0.00 | 0.00 | 0.00 | 80 | 1016.0 |
| 20260504013059 | 46 | 0 | 0.0 | 0.0 | 0.00 | 0.00 | 0.00 | 78 | 1015.5 |
| 20260504011547 | 47 | 0 | 0.0 | 0.0 | 0.00 | 0.00 | 0.00 | 75 | 1015.5 |
| 20260504010046 | 49 | 0 | 0.0 | 0.0 | 0.00 | 0.00 | 0.00 | 74 | 1015.2 |
| 20260504004616 | 50 | 0 | 0.0 | 0.0 | 0.00 | 0.00 | 0.00 | 71 | 1015.3 |
| 20260504003048 | 52 | 0 | 0.0 | 0.0 | 0.00 | 0.00 | 0.00 | 69 | 1015.1 |
| 20260504001612 | 54 | 0 | 0.0 | 0.0 | 0.00 | 0.00 | 0.00 | 64 | 1014.9 |
| 20260504000058 | 56 | 0 | 0.0 | 0.0 | 0.00 | 0.00 | 0.00 | 57 | 1014.7 |
| 20260503234544 | 59 | 0 | 0.0 | 0.0 | 0.00 | 0.00 | 0.00 | 53 | 1014.7 |
| 20260503233044 | 62 | 0 | 0.0 | 3.0 | 0.00 | 0.00 | 0.00 | 42 | 1014.5 |
| 20260503231543 | 63 | 234 | 0.0 | 2.0 | 0.00 | 0.00 | 0.00 | 38 | 1014.5 |
| 20260503230100 | 63 | 0 | 0.0 | 1.0 | 0.00 | 0.00 | 0.00 | 39 | 1014.6 |
| 20260503224548 | 64 | 0 | 0.0 | 3.0 | 0.00 | 0.00 | 0.00 | 36 | 1014.7 |
| 20260503223047 | 64 | 13 | 0.0 | 5.0 | 0.00 | 0.00 | 0.00 | 37 | 1014.7 |
| 20260503221554 | 65 | 0 | 1.0 | 4.0 | 0.00 | 0.00 | 0.00 | 36 | 1014.8 |
| 20260503220049 | 65 | 0 | 1.0 | 6.0 | 0.00 | 0.00 | 0.00 | 34 | 1015.0 |
| 20260503214541 | 66 | 127 | 0.0 | 4.0 | 0.00 | 0.00 | 0.00 | 34 | 1015.1 |
| 20260503213041 | 67 | 251 | 1.0 | 6.0 | 0.00 | 0.00 | 0.00 | 34 | 1015.3 |
| 20260503211548 | 68 | 63 | 1.0 | 4.0 | 0.00 | 0.00 | 0.00 | 29 | 1015.5 |
| 20260503210045 | 69 | 31 | 1.0 | 5.0 | 0.00 | 0.00 | 0.00 | 30 | 1015.6 |
| 20260503204543 | 68 | 281 | 1.0 | 7.0 | 0.00 | 0.00 | 0.00 | 31 | 1015.6 |
| 20260503203059 | 67 | 238 | 2.0 | 10.0 | 0.00 | 0.00 | 0.00 | 31 | 1015.9 |
| 20260503201541 | 67 | 284 | 2.0 | 12.0 | 0.00 | 0.00 | 0.00 | 30 | 1016.1 |
| 20260503200047 | 68 | 255 | 1.0 | 10.0 | 0.00 | 0.00 | 0.00 | 33 | 1016.4 |
| 20260503194545 | 68 | 167 | 1.0 | 7.0 | 0.00 | 0.00 | 0.00 | 33 | 1016.5 |
| 20260503193043 | 67 | 257 | 1.0 | 6.0 | 0.00 | 0.00 | 0.00 | 31 | 1016.8 |
| 20260503191547 | 66 | 257 | 1.0 | 12.0 | 0.00 | 0.00 | 0.00 | 31 | 1016.9 |
| 20260503190044 | 68 | 291 | 2.0 | 6.0 | 0.00 | 0.00 | 0.00 | 33 | 1017.2 |